sensor_id;sensor_type;location;lat;lon;timestamp;pressure;altitude;pressure_sealevel;temperature;humidity
42603;BME280;28233;55.748;48.752;2022-10-31T00:00:15;96585.16;;;3.39;100.00
42603;BME280;28233;55.748;48.752;2022-10-31T00:02:36;96574.19;;;3.36;100.00
42603;BME280;28233;55.748;48.752;2022-10-31T00:04:39;96585.28;;;3.31;100.00
42603;BME280;28233;55.748;48.752;2022-10-31T00:07:00;96569.97;;;3.23;100.00
42603;BME280;28233;55.748;48.752;2022-10-31T00:09:21;96597.44;;;3.21;100.00
42603;BME280;28233;55.748;48.752;2022-10-31T00:11:24;96588.06;;;3.18;100.00
42603;BME280;28233;55.748;48.752;2022-10-31T00:13:45;96590.91;;;3.10;100.00
42603;BME280;28233;55.748;48.752;2022-10-31T00:16:13;96581.00;;;3.02;100.00
42603;BME280;28233;55.748;48.752;2022-10-31T00:31:55;96597.97;;;2.86;100.00
42603;BME280;28233;55.748;48.752;2022-10-31T00:39:17;96581.50;;;2.79;100.00
42603;BME280;28233;55.748;48.752;2022-10-31T00:41:20;96577.03;;;2.71;100.00
42603;BME280;28233;55.748;48.752;2022-10-31T00:46:21;96581.53;;;2.67;100.00
42603;BME280;28233;55.748;48.752;2022-10-31T00:51:22;96575.22;;;2.63;100.00
42603;BME280;28233;55.748;48.752;2022-10-31T00:53:43;96586.84;;;2.63;100.00
42603;BME280;28233;55.748;48.752;2022-10-31T00:55:46;96582.91;;;2.61;100.00
42603;BME280;28233;55.748;48.752;2022-10-31T00:58:07;96579.72;;;2.59;100.00
42603;BME280;28233;55.748;48.752;2022-10-31T01:00:10;96594.22;;;2.50;100.00
42603;BME280;28233;55.748;48.752;2022-10-31T01:02:31;96589.81;;;2.46;100.00
42603;BME280;28233;55.748;48.752;2022-10-31T01:04:34;96589.03;;;2.45;100.00
42603;BME280;28233;55.748;48.752;2022-10-31T01:06:37;96591.75;;;2.45;100.00
42603;BME280;28233;55.748;48.752;2022-10-31T01:08:58;96591.16;;;2.40;100.00
42603;BME280;28233;55.748;48.752;2022-10-31T01:11:08;96594.78;;;2.31;100.00
42603;BME280;28233;55.748;48.752;2022-10-31T01:13:12;96588.91;;;2.29;100.00
42603;BME280;28233;55.748;48.752;2022-10-31T01:15:18;96589.16;;;2.24;100.00
42603;BME280;28233;55.748;48.752;2022-10-31T01:17:20;96592.97;;;2.23;100.00
42603;BME280;28233;55.748;48.752;2022-10-31T01:19:23;96604.41;;;2.17;100.00
42603;BME280;28233;55.748;48.752;2022-10-31T01:21:28;96595.81;;;2.15;100.00
42603;BME280;28233;55.748;48.752;2022-10-31T01:23:31;96592.66;;;2.13;100.00
42603;BME280;28233;55.748;48.752;2022-10-31T01:26:10;96595.22;;;2.09;100.00
42603;BME280;28233;55.748;48.752;2022-10-31T01:28:13;96604.72;;;2.03;100.00
42603;BME280;28233;55.748;48.752;2022-10-31T01:30:16;96590.72;;;2.01;100.00
42603;BME280;28233;55.748;48.752;2022-10-31T01:32:19;96627.72;;;1.97;100.00
42603;BME280;28233;55.748;48.752;2022-10-31T01:34:21;96605.28;;;1.96;100.00
42603;BME280;28233;55.748;48.752;2022-10-31T01:36:26;96616.09;;;1.96;100.00
42603;BME280;28233;55.748;48.752;2022-10-31T01:38:49;96593.88;;;1.90;100.00
42603;BME280;28233;55.748;48.752;2022-10-31T01:41:12;96610.53;;;1.80;100.00
42603;BME280;28233;55.748;48.752;2022-10-31T01:43:15;96608.50;;;1.77;100.00
42603;BME280;28233;55.748;48.752;2022-10-31T01:45:18;96589.66;;;1.68;100.00
42603;BME280;28233;55.748;48.752;2022-10-31T01:47:39;96588.09;;;1.67;100.00
42603;BME280;28233;55.748;48.752;2022-10-31T01:50:08;96599.00;;;1.59;100.00
42603;BME280;28233;55.748;48.752;2022-10-31T01:52:25;96589.16;;;1.54;100.00
42603;BME280;28233;55.748;48.752;2022-10-31T01:54:56;96590.63;;;1.52;100.00
42603;BME280;28233;55.748;48.752;2022-10-31T01:57:37;96581.28;;;1.49;100.00
42603;BME280;28233;55.748;48.752;2022-10-31T02:00:04;96580.81;;;1.47;100.00
42603;BME280;28233;55.748;48.752;2022-10-31T02:02:08;96584.84;;;1.41;100.00
42603;BME280;28233;55.748;48.752;2022-10-31T02:04:11;96593.31;;;1.39;100.00
42603;BME280;28233;55.748;48.752;2022-10-31T02:06:38;96587.53;;;1.41;100.00
42603;BME280;28233;55.748;48.752;2022-10-31T02:09:04;96589.94;;;1.42;100.00
42603;BME280;28233;55.748;48.752;2022-10-31T02:11:27;96590.38;;;1.44;100.00
42603;BME280;28233;55.748;48.752;2022-10-31T02:13:30;96590.50;;;1.48;100.00
42603;BME280;28233;55.748;48.752;2022-10-31T02:18:32;96604.63;;;1.54;100.00
42603;BME280;28233;55.748;48.752;2022-10-31T02:31:01;96605.63;;;1.49;100.00
42603;BME280;28233;55.748;48.752;2022-10-31T02:36:41;96620.72;;;1.50;100.00
42603;BME280;28233;55.748;48.752;2022-10-31T02:39:16;96619.63;;;1.51;100.00
42603;BME280;28233;55.748;48.752;2022-10-31T02:47:18;96629.66;;;1.51;100.00
42603;BME280;28233;55.748;48.752;2022-10-31T02:52:29;96630.66;;;1.46;100.00
42603;BME280;28233;55.748;48.752;2022-10-31T02:57:15;96619.81;;;1.46;100.00
42603;BME280;28233;55.748;48.752;2022-10-31T02:59:19;96625.25;;;1.46;100.00
42603;BME280;28233;55.748;48.752;2022-10-31T03:01:56;96634.34;;;1.41;100.00
42603;BME280;28233;55.748;48.752;2022-10-31T03:11:07;96654.28;;;1.37;100.00
42603;BME280;28233;55.748;48.752;2022-10-31T03:15:44;96655.84;;;1.38;100.00
42603;BME280;28233;55.748;48.752;2022-10-31T03:18:00;96637.13;;;1.33;100.00
42603;BME280;28233;55.748;48.752;2022-10-31T03:20:07;96644.56;;;1.36;100.00
42603;BME280;28233;55.748;48.752;2022-10-31T03:22:19;96631.50;;;1.38;100.00
42603;BME280;28233;55.748;48.752;2022-10-31T03:24:26;96642.31;;;1.38;100.00
42603;BME280;28233;55.748;48.752;2022-10-31T03:26:31;96649.66;;;1.37;100.00
42603;BME280;28233;55.748;48.752;2022-10-31T03:28:39;96647.28;;;1.36;100.00
42603;BME280;28233;55.748;48.752;2022-10-31T03:30:44;96639.50;;;1.34;100.00
42603;BME280;28233;55.748;48.752;2022-10-31T03:32:51;96646.03;;;1.33;100.00
42603;BME280;28233;55.748;48.752;2022-10-31T03:34:57;96647.16;;;1.32;100.00
42603;BME280;28233;55.748;48.752;2022-10-31T03:37:02;96652.56;;;1.32;100.00
42603;BME280;28233;55.748;48.752;2022-10-31T03:39:08;96655.59;;;1.31;100.00
42603;BME280;28233;55.748;48.752;2022-10-31T03:41:35;96667.56;;;1.30;100.00
42603;BME280;28233;55.748;48.752;2022-10-31T03:44:06;96673.59;;;1.26;100.00
42603;BME280;28233;55.748;48.752;2022-10-31T03:46:10;96681.41;;;1.28;100.00
42603;BME280;28233;55.748;48.752;2022-10-31T03:48:14;96679.94;;;1.31;100.00
42603;BME280;28233;55.748;48.752;2022-10-31T03:50:19;96680.25;;;1.29;100.00
42603;BME280;28233;55.748;48.752;2022-10-31T03:53:05;96687.59;;;1.29;100.00
42603;BME280;28233;55.748;48.752;2022-10-31T03:55:23;96693.00;;;1.29;100.00
42603;BME280;28233;55.748;48.752;2022-10-31T03:57:43;96688.84;;;1.31;100.00
42603;BME280;28233;55.748;48.752;2022-10-31T03:59:58;96692.34;;;1.32;100.00
42603;BME280;28233;55.748;48.752;2022-10-31T04:02:11;96692.22;;;1.28;100.00
42603;BME280;28233;55.748;48.752;2022-10-31T04:04:16;96695.38;;;1.30;100.00
42603;BME280;28233;55.748;48.752;2022-10-31T04:06:21;96693.16;;;1.32;100.00
42603;BME280;28233;55.748;48.752;2022-10-31T04:08:28;96694.25;;;1.31;100.00
42603;BME280;28233;55.748;48.752;2022-10-31T04:10:32;96691.91;;;1.30;100.00
42603;BME280;28233;55.748;48.752;2022-10-31T04:12:37;96690.44;;;1.32;100.00
42603;BME280;28233;55.748;48.752;2022-10-31T04:14:42;96678.81;;;1.32;100.00
42603;BME280;28233;55.748;48.752;2022-10-31T04:16:46;96684.22;;;1.32;100.00
42603;BME280;28233;55.748;48.752;2022-10-31T04:18:49;96682.97;;;1.29;99.93
42603;BME280;28233;55.748;48.752;2022-10-31T04:21:03;96680.94;;;1.26;99.28
42603;BME280;28233;55.748;48.752;2022-10-31T04:23:23;96675.19;;;1.27;99.29
42603;BME280;28233;55.748;48.752;2022-10-31T04:25:26;96680.16;;;1.25;99.35
42603;BME280;28233;55.748;48.752;2022-10-31T04:27:29;96664.91;;;1.21;98.64
42603;BME280;28233;55.748;48.752;2022-10-31T04:29:32;96666.94;;;1.24;99.99
42603;BME280;28233;55.748;48.752;2022-10-31T04:31:34;96668.88;;;1.23;99.13
42603;BME280;28233;55.748;48.752;2022-10-31T04:35:58;96678.53;;;1.24;98.90
42603;BME280;28233;55.748;48.752;2022-10-31T04:40:22;96688.25;;;1.25;99.23
42603;BME280;28233;55.748;48.752;2022-10-31T04:42:25;96694.13;;;1.27;99.07
42603;BME280;28233;55.748;48.752;2022-10-31T04:44:27;96696.50;;;1.29;99.18
42603;BME280;28233;55.748;48.752;2022-10-31T04:46:30;96700.34;;;1.28;99.46
42603;BME280;28233;55.748;48.752;2022-10-31T04:53:52;96715.91;;;1.31;99.48
42603;BME280;28233;55.748;48.752;2022-10-31T04:55:54;96700.00;;;1.30;98.83
42603;BME280;28233;55.748;48.752;2022-10-31T04:57:59;96705.06;;;1.31;98.60
42603;BME280;28233;55.748;48.752;2022-10-31T05:03:01;96705.06;;;1.31;98.39
42603;BME280;28233;55.748;48.752;2022-10-31T05:05:05;96705.84;;;1.32;98.46
42603;BME280;28233;55.748;48.752;2022-10-31T05:15:26;96706.47;;;1.37;97.83
42603;BME280;28233;55.748;48.752;2022-10-31T05:17:30;96716.97;;;1.39;97.41
42603;BME280;28233;55.748;48.752;2022-10-31T05:19:33;96717.88;;;1.43;98.53
42603;BME280;28233;55.748;48.752;2022-10-31T05:21:54;96713.59;;;1.42;98.44
42603;BME280;28233;55.748;48.752;2022-10-31T05:24:15;96715.84;;;1.40;99.05
42603;BME280;28233;55.748;48.752;2022-10-31T05:26:18;96709.19;;;1.37;99.23
42603;BME280;28233;55.748;48.752;2022-10-31T05:31:00;96737.59;;;1.43;100.00
42603;BME280;28233;55.748;48.752;2022-10-31T05:33:03;96717.41;;;1.41;99.83
42603;BME280;28233;55.748;48.752;2022-10-31T05:35:33;96726.66;;;1.40;100.00
42603;BME280;28233;55.748;48.752;2022-10-31T05:37:54;96733.84;;;1.36;100.00
42603;BME280;28233;55.748;48.752;2022-10-31T05:39:57;96728.50;;;1.27;100.00
42603;BME280;28233;55.748;48.752;2022-10-31T05:44:25;96737.50;;;1.10;100.00
42603;BME280;28233;55.748;48.752;2022-10-31T05:46:28;96735.16;;;1.09;100.00
42603;BME280;28233;55.748;48.752;2022-10-31T05:48:30;96730.53;;;1.09;100.00
42603;BME280;28233;55.748;48.752;2022-10-31T05:50:33;96740.09;;;1.07;100.00
42603;BME280;28233;55.748;48.752;2022-10-31T05:52:36;96736.13;;;1.04;100.00
42603;BME280;28233;55.748;48.752;2022-10-31T05:54:38;96738.22;;;0.98;100.00
42603;BME280;28233;55.748;48.752;2022-10-31T05:56:41;96740.59;;;1.00;100.00
42603;BME280;28233;55.748;48.752;2022-10-31T05:59:02;96743.31;;;1.00;100.00
42603;BME280;28233;55.748;48.752;2022-10-31T06:01:05;96753.00;;;1.01;100.00
42603;BME280;28233;55.748;48.752;2022-10-31T06:03:09;96739.63;;;1.04;100.00
42603;BME280;28233;55.748;48.752;2022-10-31T06:05:12;96748.53;;;1.05;100.00
42603;BME280;28233;55.748;48.752;2022-10-31T06:09:36;96751.09;;;1.01;100.00
42603;BME280;28233;55.748;48.752;2022-10-31T06:11:39;96748.41;;;1.01;100.00
42603;BME280;28233;55.748;48.752;2022-10-31T06:13:41;96753.47;;;1.03;100.00
42603;BME280;28233;55.748;48.752;2022-10-31T06:15:44;96756.03;;;0.99;100.00
42603;BME280;28233;55.748;48.752;2022-10-31T06:17:47;96758.41;;;1.01;100.00
42603;BME280;28233;55.748;48.752;2022-10-31T06:19:49;96766.88;;;0.99;100.00
42603;BME280;28233;55.748;48.752;2022-10-31T06:21:57;96768.63;;;0.95;100.00
42603;BME280;28233;55.748;48.752;2022-10-31T06:26:58;96760.03;;;0.93;100.00
42603;BME280;28233;55.748;48.752;2022-10-31T06:29:19;96770.84;;;0.93;100.00
42603;BME280;28233;55.748;48.752;2022-10-31T06:31:21;96773.56;;;0.93;100.00
42603;BME280;28233;55.748;48.752;2022-10-31T06:33:42;96793.28;;;0.94;100.00
42603;BME280;28233;55.748;48.752;2022-10-31T06:38:06;96781.00;;;0.96;100.00
42603;BME280;28233;55.748;48.752;2022-10-31T06:40:10;96778.00;;;0.98;100.00
42603;BME280;28233;55.748;48.752;2022-10-31T06:42:15;96784.53;;;0.97;100.00
42603;BME280;28233;55.748;48.752;2022-10-31T06:46:57;96787.22;;;0.97;100.00
42603;BME280;28233;55.748;48.752;2022-10-31T06:49:00;96776.41;;;0.97;100.00
42603;BME280;28233;55.748;48.752;2022-10-31T06:51:03;96791.19;;;0.99;100.00
42603;BME280;28233;55.748;48.752;2022-10-31T06:53:05;96801.84;;;0.96;100.00
42603;BME280;28233;55.748;48.752;2022-10-31T06:55:27;96793.28;;;0.94;100.00
42603;BME280;28233;55.748;48.752;2022-10-31T06:57:30;96807.13;;;0.92;100.00
42603;BME280;28233;55.748;48.752;2022-10-31T06:59:32;96803.16;;;0.90;100.00
42603;BME280;28233;55.748;48.752;2022-10-31T07:01:35;96807.31;;;0.87;100.00
42603;BME280;28233;55.748;48.752;2022-10-31T07:03:38;96798.75;;;0.85;100.00
42603;BME280;28233;55.748;48.752;2022-10-31T07:05:41;96820.38;;;0.85;100.00
42603;BME280;28233;55.748;48.752;2022-10-31T07:07:44;96819.22;;;0.86;100.00
42603;BME280;28233;55.748;48.752;2022-10-31T07:09:46;96833.72;;;0.81;100.00
42603;BME280;28233;55.748;48.752;2022-10-31T07:11:52;96822.13;;;0.81;100.00
42603;BME280;28233;55.748;48.752;2022-10-31T07:13:55;96828.31;;;0.81;100.00
42603;BME280;28233;55.748;48.752;2022-10-31T07:16:03;96828.31;;;0.81;100.00
42603;BME280;28233;55.748;48.752;2022-10-31T07:18:08;96846.75;;;0.79;100.00
42603;BME280;28233;55.748;48.752;2022-10-31T07:20:11;96830.69;;;0.83;100.00
42603;BME280;28233;55.748;48.752;2022-10-31T07:22:14;96832.75;;;0.86;100.00
42603;BME280;28233;55.748;48.752;2022-10-31T07:24:16;96842.78;;;0.86;100.00
42603;BME280;28233;55.748;48.752;2022-10-31T07:26:19;96844.03;;;0.88;100.00
42603;BME280;28233;55.748;48.752;2022-10-31T07:28:22;96844.34;;;0.87;100.00
42603;BME280;28233;55.748;48.752;2022-10-31T07:30:24;96862.00;;;0.84;100.00
42603;BME280;28233;55.748;48.752;2022-10-31T07:32:27;96848.84;;;0.82;100.00
42603;BME280;28233;55.748;48.752;2022-10-31T07:34:30;96867.59;;;0.79;100.00
42603;BME280;28233;55.748;48.752;2022-10-31T07:36:33;96876.50;;;0.79;100.00
42603;BME280;28233;55.748;48.752;2022-10-31T07:38:35;96865.56;;;0.76;100.00
42603;BME280;28233;55.748;48.752;2022-10-31T07:40:39;96866.16;;;0.73;100.00
42603;BME280;28233;55.748;48.752;2022-10-31T07:42:44;96871.44;;;0.69;100.00
42603;BME280;28233;55.748;48.752;2022-10-31T07:44:47;96866.69;;;0.66;100.00
42603;BME280;28233;55.748;48.752;2022-10-31T07:46:55;96870.97;;;0.76;100.00
42603;BME280;28233;55.748;48.752;2022-10-31T07:48:57;96900.34;;;0.77;100.00
42603;BME280;28233;55.748;48.752;2022-10-31T07:51:00;96893.69;;;0.75;100.00
42603;BME280;28233;55.748;48.752;2022-10-31T07:53:06;96891.00;;;0.66;100.00
42603;BME280;28233;55.748;48.752;2022-10-31T07:55:09;96893.25;;;0.64;100.00
42603;BME280;28233;55.748;48.752;2022-10-31T07:57:13;96898.66;;;0.64;100.00
42603;BME280;28233;55.748;48.752;2022-10-31T07:59:17;96899.13;;;0.66;100.00
42603;BME280;28233;55.748;48.752;2022-10-31T08:01:20;96906.56;;;0.69;100.00
42603;BME280;28233;55.748;48.752;2022-10-31T08:03:22;96906.56;;;0.69;100.00
42603;BME280;28233;55.748;48.752;2022-10-31T08:05:25;96917.56;;;0.64;100.00
42603;BME280;28233;55.748;48.752;2022-10-31T08:07:28;96920.44;;;0.59;100.00
42603;BME280;28233;55.748;48.752;2022-10-31T08:09:31;96912.63;;;0.57;100.00
42603;BME280;28233;55.748;48.752;2022-10-31T08:11:53;96927.28;;;0.48;100.00
42603;BME280;28233;55.748;48.752;2022-10-31T08:14:14;96926.16;;;0.49;100.00
42603;BME280;28233;55.748;48.752;2022-10-31T08:16:35;96921.22;;;0.51;100.00
42603;BME280;28233;55.748;48.752;2022-10-31T08:18:38;96948.72;;;0.44;100.00
42603;BME280;28233;55.748;48.752;2022-10-31T08:21:00;96926.16;;;0.40;100.00
42603;BME280;28233;55.748;48.752;2022-10-31T08:23:21;96929.31;;;0.42;100.00
42603;BME280;28233;55.748;48.752;2022-10-31T08:25:25;96938.25;;;0.43;100.00
42603;BME280;28233;55.748;48.752;2022-10-31T08:27:28;96932.50;;;0.44;100.00
42603;BME280;28233;55.748;48.752;2022-10-31T08:29:31;96943.00;;;0.46;100.00
42603;BME280;28233;55.748;48.752;2022-10-31T08:31:33;96955.38;;;0.47;100.00
42603;BME280;28233;55.748;48.752;2022-10-31T08:33:43;96950.81;;;0.47;100.00
42603;BME280;28233;55.748;48.752;2022-10-31T08:35:47;96948.25;;;0.51;100.00
42603;BME280;28233;55.748;48.752;2022-10-31T08:37:56;96949.34;;;0.41;100.00
42603;BME280;28233;55.748;48.752;2022-10-31T08:44:42;96966.03;;;0.34;100.00
42603;BME280;28233;55.748;48.752;2022-10-31T08:46:45;96978.59;;;0.30;100.00
42603;BME280;28233;55.748;48.752;2022-10-31T08:48:48;96969.03;;;0.33;100.00
42603;BME280;28233;55.748;48.752;2022-10-31T08:50:51;96966.03;;;0.34;100.00
42603;BME280;28233;55.748;48.752;2022-10-31T08:55:40;96975.41;;;0.37;100.00
42603;BME280;28233;55.748;48.752;2022-10-31T08:57:42;96980.50;;;0.38;100.00
42603;BME280;28233;55.748;48.752;2022-10-31T08:59:45;96987.81;;;0.38;100.00
42603;BME280;28233;55.748;48.752;2022-10-31T09:02:07;96989.41;;;0.39;100.00
42603;BME280;28233;55.748;48.752;2022-10-31T09:04:10;96992.88;;;0.39;100.00
42603;BME280;28233;55.748;48.752;2022-10-31T09:06:13;96995.75;;;0.43;100.00
42603;BME280;28233;55.748;48.752;2022-10-31T09:08:16;96995.09;;;0.37;100.00
42603;BME280;28233;55.748;48.752;2022-10-31T09:10:37;97004.03;;;0.38;100.00
42603;BME280;28233;55.748;48.752;2022-10-31T09:15:01;97009.44;;;0.38;100.00
42603;BME280;28233;55.748;48.752;2022-10-31T09:17:04;97008.31;;;0.39;100.00
42603;BME280;28233;55.748;48.752;2022-10-31T09:19:07;97009.56;;;0.41;100.00
42603;BME280;28233;55.748;48.752;2022-10-31T09:21:12;97012.59;;;0.40;100.00
42603;BME280;28233;55.748;48.752;2022-10-31T09:23:33;97030.22;;;0.37;100.00
42603;BME280;28233;55.748;48.752;2022-10-31T09:25:36;97031.97;;;0.42;100.00
42603;BME280;28233;55.748;48.752;2022-10-31T09:27:39;97031.97;;;0.42;100.00
42603;BME280;28233;55.748;48.752;2022-10-31T09:29:42;97038.66;;;0.45;100.00
42603;BME280;28233;55.748;48.752;2022-10-31T09:31:45;97038.66;;;0.36;100.00
42603;BME280;28233;55.748;48.752;2022-10-31T09:33:47;97046.28;;;0.34;100.00
42603;BME280;28233;55.748;48.752;2022-10-31T09:35:50;97036.56;;;0.33;100.00
42603;BME280;28233;55.748;48.752;2022-10-31T09:38:16;97041.38;;;0.36;100.00
42603;BME280;28233;55.748;48.752;2022-10-31T09:43:35;97064.06;;;0.35;100.00
42603;BME280;28233;55.748;48.752;2022-10-31T09:47:40;97066.47;;;0.36;100.00
42603;BME280;28233;55.748;48.752;2022-10-31T09:55:17;97069.50;;;0.44;100.00
42603;BME280;28233;55.748;48.752;2022-10-31T09:57:29;97085.06;;;0.38;100.00
42603;BME280;28233;55.748;48.752;2022-10-31T09:59:38;97071.56;;;0.38;100.00
42603;BME280;28233;55.748;48.752;2022-10-31T10:01:48;97074.41;;;0.41;100.00
42603;BME280;28233;55.748;48.752;2022-10-31T10:03:56;97079.03;;;0.41;100.00
42603;BME280;28233;55.748;48.752;2022-10-31T10:06:17;97080.78;;;0.46;100.00
42603;BME280;28233;55.748;48.752;2022-10-31T10:08:31;97074.91;;;0.52;100.00
42603;BME280;28233;55.748;48.752;2022-10-31T10:10:59;97087.00;;;0.55;100.00
42603;BME280;28233;55.748;48.752;2022-10-31T10:13:41;97090.78;;;0.54;100.00
42603;BME280;28233;55.748;48.752;2022-10-31T10:21:24;97088.28;;;0.57;100.00
42603;BME280;28233;55.748;48.752;2022-10-31T10:25:47;97094.94;;;0.60;100.00
42603;BME280;28233;55.748;48.752;2022-10-31T10:32:54;97116.41;;;0.65;100.00
42603;BME280;28233;55.748;48.752;2022-10-31T10:35:19;97109.44;;;0.64;100.00
42603;BME280;28233;55.748;48.752;2022-10-31T10:37:39;97117.53;;;0.64;100.00
42603;BME280;28233;55.748;48.752;2022-10-31T10:39:49;97125.00;;;0.67;100.00
42603;BME280;28233;55.748;48.752;2022-10-31T10:41:55;97134.22;;;0.66;100.00
42603;BME280;28233;55.748;48.752;2022-10-31T10:44:17;97136.59;;;0.68;100.00
42603;BME280;28233;55.748;48.752;2022-10-31T10:51:20;97141.84;;;0.64;100.00
42603;BME280;28233;55.748;48.752;2022-10-31T10:53:59;97153.16;;;0.66;100.00
42603;BME280;28233;55.748;48.752;2022-10-31T10:56:21;97153.16;;;0.66;100.00
42603;BME280;28233;55.748;48.752;2022-10-31T10:58:32;97153.44;;;0.65;100.00
42603;BME280;28233;55.748;48.752;2022-10-31T11:00:38;97155.38;;;0.64;100.00
42603;BME280;28233;55.748;48.752;2022-10-31T11:02:42;97149.97;;;0.64;100.00
42603;BME280;28233;55.748;48.752;2022-10-31T11:04:52;97161.72;;;0.59;100.00
42603;BME280;28233;55.748;48.752;2022-10-31T11:07:09;97163.94;;;0.57;100.00
42603;BME280;28233;55.748;48.752;2022-10-31T11:09:15;97156.47;;;0.63;100.00
42603;BME280;28233;55.748;48.752;2022-10-31T11:11:38;97168.25;;;0.67;100.00
42603;BME280;28233;55.748;48.752;2022-10-31T11:13:41;97167.13;;;0.59;100.00
42603;BME280;28233;55.748;48.752;2022-10-31T11:16:04;97168.09;;;0.63;100.00
42603;BME280;28233;55.748;48.752;2022-10-31T11:18:29;97179.06;;;0.67;100.00
42603;BME280;28233;55.748;48.752;2022-10-31T11:20:35;97167.94;;;0.69;100.00
42603;BME280;28233;55.748;48.752;2022-10-31T11:23:01;97174.78;;;0.75;100.00
42603;BME280;28233;55.748;48.752;2022-10-31T11:25:36;97185.75;;;0.78;100.00
42603;BME280;28233;55.748;48.752;2022-10-31T11:27:38;97173.81;;;0.79;100.00
42603;BME280;28233;55.748;48.752;2022-10-31T11:29:41;97189.28;;;0.88;100.00
42603;BME280;28233;55.748;48.752;2022-10-31T11:31:45;97189.44;;;0.91;100.00
42603;BME280;28233;55.748;48.752;2022-10-31T11:34:03;97198.66;;;0.90;100.00
42603;BME280;28233;55.748;48.752;2022-10-31T11:36:20;97191.50;;;0.86;100.00
42603;BME280;28233;55.748;48.752;2022-10-31T11:38:29;97190.56;;;0.90;100.00
42603;BME280;28233;55.748;48.752;2022-10-31T11:40:33;97201.84;;;0.92;100.00
42603;BME280;28233;55.748;48.752;2022-10-31T11:42:39;97203.09;;;0.86;100.00
42603;BME280;28233;55.748;48.752;2022-10-31T11:45:47;97203.09;;;0.86;100.00
42603;BME280;28233;55.748;48.752;2022-10-31T11:47:31;97206.28;;;0.88;100.00
42603;BME280;28233;55.748;48.752;2022-10-31T11:50:02;97210.09;;;0.78;100.00
42603;BME280;28233;55.748;48.752;2022-10-31T11:52:31;97210.09;;;0.78;100.00
42603;BME280;28233;55.748;48.752;2022-10-31T11:54:45;97221.69;;;0.79;100.00
42603;BME280;28233;55.748;48.752;2022-10-31T11:56:49;97216.13;;;0.75;100.00
42603;BME280;28233;55.748;48.752;2022-10-31T11:59:01;97218.50;;;0.77;100.00
42603;BME280;28233;55.748;48.752;2022-10-31T12:01:04;97219.63;;;0.76;100.00
42603;BME280;28233;55.748;48.752;2022-10-31T12:05:26;97219.47;;;0.81;100.00
42603;BME280;28233;55.748;48.752;2022-10-31T12:07:35;97229.97;;;0.82;100.00
42603;BME280;28233;55.748;48.752;2022-10-31T12:09:38;97237.75;;;0.84;100.00
42603;BME280;28233;55.748;48.752;2022-10-31T12:16:55;97241.41;;;0.71;100.00
42603;BME280;28233;55.748;48.752;2022-10-31T12:24:22;97250.28;;;0.71;100.00
42603;BME280;28233;55.748;48.752;2022-10-31T12:29:00;97245.50;;;0.68;100.00
42603;BME280;28233;55.748;48.752;2022-10-31T12:36:08;97262.84;;;0.67;100.00
42603;BME280;28233;55.748;48.752;2022-10-31T12:38:47;97269.47;;;0.61;100.00
42603;BME280;28233;55.748;48.752;2022-10-31T12:45:55;97276.28;;;0.50;100.00
42603;BME280;28233;55.748;48.752;2022-10-31T12:58:07;97295.44;;;0.39;100.00
42603;BME280;28233;55.748;48.752;2022-10-31T13:00:17;97290.81;;;0.40;100.00
42603;BME280;28233;55.748;48.752;2022-10-31T13:02:22;97288.63;;;0.42;100.00
42603;BME280;28233;55.748;48.752;2022-10-31T13:07:03;97301.81;;;0.44;100.00
42603;BME280;28233;55.748;48.752;2022-10-31T13:09:13;97304.53;;;0.44;100.00
42603;BME280;28233;55.748;48.752;2022-10-31T13:11:27;97305.16;;;0.40;100.00
42603;BME280;28233;55.748;48.752;2022-10-31T13:15:55;97305.75;;;0.37;100.00
42603;BME280;28233;55.748;48.752;2022-10-31T13:18:11;97307.66;;;0.37;100.00
42603;BME280;28233;55.748;48.752;2022-10-31T13:20:27;97313.81;;;0.29;100.00
42603;BME280;28233;55.748;48.752;2022-10-31T13:22:31;97316.41;;;0.34;100.00
42603;BME280;28233;55.748;48.752;2022-10-31T13:24:57;97321.78;;;0.34;100.00
42603;BME280;28233;55.748;48.752;2022-10-31T13:27:09;97326.06;;;0.35;100.00
42603;BME280;28233;55.748;48.752;2022-10-31T13:29:35;97317.81;;;0.31;100.00
42603;BME280;28233;55.748;48.752;2022-10-31T13:31:42;97323.38;;;0.35;100.00
42603;BME280;28233;55.748;48.752;2022-10-31T13:33:57;97325.41;;;0.29;100.00
42603;BME280;28233;55.748;48.752;2022-10-31T13:38:35;97323.03;;;0.28;100.00
42603;BME280;28233;55.748;48.752;2022-10-31T13:40:50;97336.22;;;0.29;100.00
42603;BME280;28233;55.748;48.752;2022-10-31T13:45:23;97331.91;;;0.28;100.00
42603;BME280;28233;55.748;48.752;2022-10-31T13:47:28;97335.94;;;0.31;100.00
42603;BME280;28233;55.748;48.752;2022-10-31T13:51:34;97331.31;;;0.31;100.00
42603;BME280;28233;55.748;48.752;2022-10-31T13:58:26;97347.03;;;0.29;100.00
42603;BME280;28233;55.748;48.752;2022-10-31T14:00:30;97345.31;;;0.33;100.00
42603;BME280;28233;55.748;48.752;2022-10-31T14:02:37;97345.63;;;0.32;100.00
42603;BME280;28233;55.748;48.752;2022-10-31T14:04:52;97342.13;;;0.31;100.00
42603;BME280;28233;55.748;48.752;2022-10-31T14:07:15;97346.41;;;0.32;100.00
42603;BME280;28233;55.748;48.752;2022-10-31T14:11:27;97346.28;;;0.37;100.00
42603;BME280;28233;55.748;48.752;2022-10-31T14:13:42;97358.19;;;0.36;100.00
42603;BME280;28233;55.748;48.752;2022-10-31T14:15:58;97352.31;;;0.34;100.00
42603;BME280;28233;55.748;48.752;2022-10-31T14:18:04;97361.53;;;0.33;100.00
42603;BME280;28233;55.748;48.752;2022-10-31T14:22:21;97360.25;;;0.31;100.00
42603;BME280;28233;55.748;48.752;2022-10-31T14:26:32;97368.81;;;0.33;100.00
42603;BME280;28233;55.748;48.752;2022-10-31T14:28:35;97371.50;;;0.33;100.00
42603;BME280;28233;55.748;48.752;2022-10-31T14:30:38;97364.03;;;0.30;100.00
42603;BME280;28233;55.748;48.752;2022-10-31T14:32:42;97366.72;;;0.30;100.00